TRV weather

Trivandrum International Airport
Thiruvananthapuram, Kerala, India

Public forecast

Using degrees Celsius for public forecast. Weather courtesy of forecast.io.

Current aviation weather report (METAR) for Trivandrum International Airport

Retrieved 2020/02/27 17:30 UTC (35 minutes ago):

VOTV 271730Z 34003KT 3000 HZ FEW015 29/23 Q1010 NOSIG

Aviation forecast (TAF) for Trivandrum International Airport

Retrieved 2020/02/27 18:00 UTC (5 minutes ago):

TAF VOTV 271700Z 2718/2824 30005KT 4000 HZ FEW015 BECMG 2723/2801 12005KT 2000 BR FEW015 SCT080 BECMG 2804/2806 29010KT 6000 BECMG 2813/2815 4000 HZ FEW015 FEW025CB SCT080 BECMG 2818/2819 VRB03KT 3000 HZ FEW015 SCT080